Time,TemperatureF,DewpointF,PressureIn,WindDirection,WindDirectionDegrees,WindSpeedMPH,WindSpeedGustMPH,Humidity,HourlyPrecipIn,Conditions,Clouds,dailyrainin,SoftwareType,DateUTC
2013-04-03 00:03:00,37.0,22.0,30.25,NE,45,2.0,3.0,53,-99.99,,,-99.99,,2013-04-03 04:03:00,
2013-04-03 00:12:00,36.0,24.0,30.25,NE,45,0.0,-999.0,61,-99.99,,,-99.99,,2013-04-03 04:12:00,
2013-04-03 00:23:00,35.0,23.0,30.26,NE,45,0.0,-999.0,60,-99.99,,,-99.99,,2013-04-03 04:23:00,
2013-04-03 00:33:00,35.0,24.0,30.26,NE,45,0.0,-999.0,64,-99.99,,,-99.99,,2013-04-03 04:33:00,
2013-04-03 00:42:00,35.0,24.0,30.26,NE,45,1.0,2.0,63,-99.99,,,-99.99,,2013-04-03 04:42:00,
2013-04-03 00:53:00,35.0,24.0,30.25,NE,45,3.0,3.0,63,-99.99,,,-99.99,,2013-04-03 04:53:00,
2013-04-03 01:02:00,35.0,23.0,30.26,NE,45,3.0,4.0,61,-99.99,,,-99.99,,2013-04-03 05:02:00,
2013-04-03 01:12:00,36.0,22.0,30.26,NE,45,3.0,4.0,58,-99.99,,,-99.99,,2013-04-03 05:12:00,
2013-04-03 01:22:00,36.0,22.0,30.26,ENE,67,4.0,5.0,57,-99.99,,,-99.99,,2013-04-03 05:22:00,
2013-04-03 01:32:00,35.0,23.0,30.26,ENE,67,3.0,4.0,60,-99.99,,,-99.99,,2013-04-03 05:32:00,
2013-04-03 01:42:00,36.0,22.0,30.26,NE,45,3.0,3.0,58,-99.99,,,-99.99,,2013-04-03 05:42:00,
2013-04-03 01:52:00,34.0,23.0,30.26,NE,45,4.0,4.0,64,-99.99,,,-99.99,,2013-04-03 05:52:00,
2013-04-03 02:02:00,34.0,23.0,30.26,NE,45,3.0,4.0,62,-99.99,,,-99.99,,2013-04-03 06:02:00,
2013-04-03 02:12:00,34.0,23.0,30.27,NE,45,4.0,4.0,62,-99.99,,,-99.99,,2013-04-03 06:12:00,
2013-04-03 02:22:00,33.0,23.0,30.27,NE,45,4.0,5.0,66,-99.99,,,-99.99,,2013-04-03 06:22:00,
2013-04-03 02:32:00,33.0,23.0,30.27,NE,45,4.0,5.0,68,-99.99,,,-99.99,,2013-04-03 06:32:00,
2013-04-03 02:42:00,32.0,24.0,30.27,NNE,22,5.0,6.0,73,-99.99,,,-99.99,,2013-04-03 06:42:00,
2013-04-03 02:52:00,33.0,24.0,30.27,NNE,22,8.0,9.0,68,-99.99,,,-99.99,,2013-04-03 06:52:00,
2013-04-03 03:02:00,32.0,24.0,30.27,NE,45,7.0,9.0,71,-99.99,,,-99.99,,2013-04-03 07:02:00,
2013-04-03 03:12:00,32.0,24.0,30.27,NE,45,7.0,9.0,72,-99.99,,,-99.99,,2013-04-03 07:12:00,
2013-04-03 03:23:00,32.0,24.0,30.27,NE,45,9.0,11.0,71,-99.99,,,-99.99,,2013-04-03 07:23:00,
2013-04-03 03:32:00,32.0,25.0,30.27,NE,45,7.0,8.0,75,-99.99,,,-99.99,,2013-04-03 07:32:00,
2013-04-03 03:42:00,32.0,25.0,30.26,NE,45,6.0,7.0,76,-99.99,,,-99.99,,2013-04-03 07:42:00,
2013-04-03 03:52:00,31.0,24.0,30.27,NNE,22,5.0,6.0,75,-99.99,,,-99.99,,2013-04-03 07:52:00,
2013-04-03 04:02:00,31.0,24.0,30.27,NNE,22,4.0,5.0,76,-99.99,,,-99.99,,2013-04-03 08:02:00,
2013-04-03 04:12:00,31.0,24.0,30.27,NNE,22,4.0,4.0,76,-99.99,,,-99.99,,2013-04-03 08:12:00,
2013-04-03 04:22:00,31.0,24.0,30.28,NNE,22,5.0,6.0,76,-99.99,,,-99.99,,2013-04-03 08:22:00,
2013-04-03 04:32:00,31.0,24.0,30.28,NNE,22,5.0,6.0,76,-99.99,,,-99.99,,2013-04-03 08:32:00,
2013-04-03 04:42:00,31.0,24.0,30.27,NNE,22,6.0,7.0,76,-99.99,,,-99.99,,2013-04-03 08:42:00,
2013-04-03 04:52:00,31.0,24.0,30.27,NNE,22,5.0,6.0,77,-99.99,,,-99.99,,2013-04-03 08:52:00,
2013-04-03 05:02:00,31.0,24.0,30.27,NNE,22,6.0,7.0,76,-99.99,,,-99.99,,2013-04-03 09:02:00,
2013-04-03 05:12:00,30.0,24.0,30.27,NE,45,5.0,6.0,77,-99.99,,,-99.99,,2013-04-03 09:12:00,
2013-04-03 05:22:00,30.0,24.0,30.27,NE,45,5.0,7.0,79,-99.99,,,-99.99,,2013-04-03 09:22:00,
2013-04-03 05:33:00,30.0,24.0,30.27,NNE,22,6.0,8.0,78,-99.99,,,-99.99,,2013-04-03 09:33:00,
2013-04-03 05:43:00,30.0,24.0,30.27,NNE,22,6.0,8.0,78,-99.99,,,-99.99,,2013-04-03 09:43:00,
2013-04-03 05:52:00,30.0,24.0,30.27,NE,45,5.0,7.0,77,-99.99,,,-99.99,,2013-04-03 09:52:00,
2013-04-03 06:03:00,30.0,24.0,30.27,NE,45,5.0,7.0,79,-99.99,,,-99.99,,2013-04-03 10:03:00,
2013-04-03 06:12:00,30.0,24.0,30.27,NE,45,5.0,7.0,78,-99.99,,,-99.99,,2013-04-03 10:12:00,
2013-04-03 06:22:00,30.0,23.0,30.28,NE,45,5.0,7.0,77,-99.99,,,-99.99,,2013-04-03 10:22:00,
2013-04-03 06:33:00,29.0,24.0,30.28,NE,45,5.0,6.0,79,-99.99,,,-99.99,,2013-04-03 10:33:00,
2013-04-03 06:42:00,29.0,23.0,30.28,NNE,22,6.0,7.0,79,-99.99,,,-99.99,,2013-04-03 10:42:00,
2013-04-03 06:52:00,29.0,23.0,30.28,NE,45,6.0,8.0,79,-99.99,,,-99.99,,2013-04-03 10:52:00,
2013-04-03 07:02:00,29.0,23.0,30.29,NNE,22,6.0,7.0,79,-99.99,,,-99.99,,2013-04-03 11:02:00,
2013-04-03 07:12:00,29.0,23.0,30.29,NNE,22,6.0,8.0,79,-99.99,,,-99.99,,2013-04-03 11:12:00,
2013-04-03 07:22:00,29.0,23.0,30.29,NNE,22,6.0,8.0,79,-99.99,,,-99.99,,2013-04-03 11:22:00,
2013-04-03 07:32:00,29.0,23.0,30.30,NE,45,5.0,7.0,79,-99.99,,,-99.99,,2013-04-03 11:32:00,
2013-04-03 07:42:00,29.0,23.0,30.31,NE,45,4.0,6.0,80,-99.99,,,-99.99,,2013-04-03 11:42:00,
2013-04-03 07:52:00,28.0,23.0,30.32,NE,45,4.0,5.0,81,-99.99,,,-99.99,,2013-04-03 11:52:00,
2013-04-03 08:02:00,28.0,23.0,30.32,NE,45,3.0,4.0,81,-99.99,,,-99.99,,2013-04-03 12:02:00,
2013-04-03 08:12:00,28.0,23.0,30.33,ENE,67,3.0,4.0,81,-99.99,,,-99.99,,2013-04-03 12:12:00,
2013-04-03 08:22:00,28.0,23.0,30.33,ENE,67,3.0,4.0,80,-99.99,,,-99.99,,2013-04-03 12:22:00,
2013-04-03 08:32:00,29.0,23.0,30.33,NE,45,3.0,3.0,79,-99.99,,,-99.99,,2013-04-03 12:32:00,
2013-04-03 08:42:00,30.0,24.0,30.34,NNE,22,2.0,3.0,77,-99.99,,,-99.99,,2013-04-03 12:42:00,
2013-04-03 08:52:00,31.0,24.0,30.34,NE,45,3.0,4.0,75,-99.99,,,-99.99,,2013-04-03 12:52:00,
2013-04-03 09:02:00,31.0,23.0,30.35,NE,45,4.0,5.0,73,-99.99,,,-99.99,,2013-04-03 13:02:00,
2013-04-03 09:12:00,32.0,24.0,30.34,NE,45,4.0,6.0,73,-99.99,,,-99.99,,2013-04-03 13:12:00,
2013-04-03 09:22:00,32.0,24.0,30.35,ENE,67,5.0,6.0,72,-99.99,,,-99.99,,2013-04-03 13:22:00,
2013-04-03 09:32:00,33.0,23.0,30.35,NE,45,6.0,8.0,67,-99.99,,,-99.99,,2013-04-03 13:32:00,
2013-04-03 09:42:00,34.0,23.0,30.35,ENE,67,7.0,10.0,63,-99.99,,,-99.99,,2013-04-03 13:42:00,
2013-04-03 09:52:00,34.0,23.0,30.35,ENE,67,8.0,11.0,62,-99.99,,,-99.99,,2013-04-03 13:52:00,
2013-04-03 10:02:00,35.0,22.0,30.35,North,0,8.0,11.0,58,-99.99,,,-99.99,,2013-04-03 14:02:00,
2013-04-03 10:12:00,36.0,23.0,30.34,North,0,8.0,11.0,60,-99.99,,,-99.99,,2013-04-03 14:12:00,
2013-04-03 10:22:00,37.0,24.0,30.34,North,0,8.0,12.0,59,-99.99,,,-99.99,,2013-04-03 14:22:00,
2013-04-03 10:32:00,37.0,23.0,30.35,North,0,7.0,10.0,55,-99.99,,,-99.99,,2013-04-03 14:32:00,
2013-04-03 10:42:00,38.0,25.0,30.34,North,0,8.0,11.0,59,-99.99,,,-99.99,,2013-04-03 14:42:00,
2013-04-03 10:52:00,38.0,21.0,30.34,SE,135,8.0,11.0,50,-99.99,,,-99.99,,2013-04-03 14:52:00,
2013-04-03 11:02:00,39.0,21.0,30.34,North,0,8.0,12.0,49,-99.99,,,-99.99,,2013-04-03 15:02:00,
2013-04-03 11:12:00,39.0,21.0,30.34,ENE,67,9.0,13.0,48,-99.99,,,-99.99,,2013-04-03 15:12:00,
2013-04-03 11:23:00,40.0,20.0,30.34,North,0,8.0,12.0,45,-99.99,,,-99.99,,2013-04-03 15:23:00,
2013-04-03 11:33:00,41.0,21.0,30.34,North,0,9.0,12.0,46,-99.99,,,-99.99,,2013-04-03 15:33:00,
2013-04-03 11:42:00,41.0,20.0,30.34,North,0,8.0,13.0,44,-99.99,,,-99.99,,2013-04-03 15:42:00,
2013-04-03 11:53:00,41.0,22.0,30.34,ENE,67,8.0,12.0,46,-99.99,,,-99.99,,2013-04-03 15:53:00,
2013-04-03 12:03:00,42.0,22.0,30.33,ESE,112,9.0,12.0,44,-99.99,,,-99.99,,2013-04-03 16:03:00,
2013-04-03 12:12:00,42.0,22.0,30.33,ENE,67,9.0,13.0,44,-99.99,,,-99.99,,2013-04-03 16:12:00,
2013-04-03 12:23:00,43.0,25.0,30.33,NE,45,10.0,13.0,50,-99.99,,,-99.99,,2013-04-03 16:23:00,
2013-04-03 12:32:00,43.0,23.0,30.34,NE,45,11.0,14.0,43,-99.99,,,-99.99,,2013-04-03 16:32:00,
2013-04-03 12:43:00,44.0,18.0,30.34,North,0,9.0,16.0,35,-99.99,,,-99.99,,2013-04-03 16:43:00,
2013-04-03 12:52:00,44.0,25.0,30.33,ENE,67,6.0,12.0,46,-99.99,,,-99.99,,2013-04-03 16:52:00,
2013-04-03 13:02:00,44.0,18.0,30.33,ENE,67,7.0,11.0,35,-99.99,,,-99.99,,2013-04-03 17:02:00,
2013-04-03 13:13:00,44.0,21.0,30.32,NE,45,7.0,12.0,39,-99.99,,,-99.99,,2013-04-03 17:13:00,
2013-04-03 13:22:00,45.0,28.0,30.31,North,0,11.0,18.0,50,-99.99,,,-99.99,,2013-04-03 17:22:00,
2013-04-03 13:32:00,45.0,21.0,30.30,ENE,67,14.0,20.0,38,-99.99,,,-99.99,,2013-04-03 17:32:00,
2013-04-03 13:45:00,46.0,25.0,30.29,ENE,67,11.0,18.0,44,-99.99,,,-99.99,,2013-04-03 17:45:00,
2013-04-03 13:53:00,46.0,22.0,30.29,ESE,112,10.0,16.0,38,-99.99,,,-99.99,,2013-04-03 17:53:00,
2013-04-03 14:02:00,46.0,26.0,30.29,North,0,9.0,13.0,44,-99.99,,,-99.99,,2013-04-03 18:02:00,
2013-04-03 14:12:00,46.0,21.0,30.28,North,0,7.0,13.0,37,-99.99,,,-99.99,,2013-04-03 18:12:00,
2013-04-03 14:22:00,47.0,23.0,30.28,ESE,112,10.0,16.0,39,-99.99,,,-99.99,,2013-04-03 18:22:00,
2013-04-03 14:33:00,47.0,28.0,30.28,ESE,112,9.0,14.0,48,-99.99,,,-99.99,,2013-04-03 18:33:00,
2013-04-03 14:42:00,47.0,19.0,30.27,NE,45,9.0,16.0,33,-99.99,,,-99.99,,2013-04-03 18:42:00,
2013-04-03 14:52:00,47.0,25.0,30.27,ENE,67,11.0,16.0,41,-99.99,,,-99.99,,2013-04-03 18:52:00,
2013-04-03 15:02:00,48.0,24.0,30.27,ENE,67,8.0,14.0,38,-99.99,,,-99.99,,2013-04-03 19:02:00,
2013-04-03 15:12:00,48.0,20.0,30.26,North,0,7.0,13.0,33,-99.99,,,-99.99,,2013-04-03 19:12:00,
2013-04-03 15:22:00,49.0,24.0,30.27,ENE,67,9.0,12.0,38,-99.99,,,-99.99,,2013-04-03 19:22:00,
2013-04-03 15:32:00,49.0,21.0,30.26,ESE,112,9.0,13.0,32,-99.99,,,-99.99,,2013-04-03 19:32:00,
2013-04-03 15:42:00,49.0,25.0,30.26,ENE,67,12.0,18.0,38,-99.99,,,-99.99,,2013-04-03 19:42:00,
2013-04-03 15:52:00,49.0,27.0,30.25,ESE,112,7.0,13.0,41,-99.99,,,-99.99,,2013-04-03 19:52:00,
2013-04-03 16:02:00,49.0,21.0,30.25,North,0,11.0,18.0,33,-99.99,,,-99.99,,2013-04-03 20:02:00,
2013-04-03 16:12:00,49.0,18.0,30.25,North,0,14.0,18.0,29,-99.99,,,-99.99,,2013-04-03 20:12:00,
2013-04-03 16:22:00,50.0,22.0,30.25,North,0,10.0,14.0,33,-99.99,,,-99.99,,2013-04-03 20:22:00,
2013-04-03 16:32:00,50.0,23.0,30.26,North,0,11.0,15.0,35,-99.99,,,-99.99,,2013-04-03 20:32:00,
2013-04-03 16:42:00,50.0,21.0,30.26,North,0,13.0,17.0,32,-99.99,,,-99.99,,2013-04-03 20:42:00,
2013-04-03 16:52:00,50.0,22.0,30.26,ESE,112,9.0,17.0,33,-99.99,,,-99.99,,2013-04-03 20:52:00,
2013-04-03 17:02:00,50.0,18.0,30.26,NE,45,8.0,16.0,28,-99.99,,,-99.99,,2013-04-03 21:02:00,
2013-04-03 17:12:00,50.0,23.0,30.25,North,0,12.0,16.0,34,-99.99,,,-99.99,,2013-04-03 21:12:00,
2013-04-03 17:22:00,50.0,25.0,30.25,North,0,12.0,16.0,38,-99.99,,,-99.99,,2013-04-03 21:22:00,
2013-04-03 17:32:00,50.0,22.0,30.24,ENE,67,10.0,14.0,32,-99.99,,,-99.99,,2013-04-03 21:32:00,
2013-04-03 17:42:00,50.0,25.0,30.23,North,0,11.0,16.0,37,-99.99,,,-99.99,,2013-04-03 21:42:00,
2013-04-03 17:52:00,50.0,21.0,30.23,ESE,112,12.0,16.0,32,-99.99,,,-99.99,,2013-04-03 21:52:00,
2013-04-03 18:02:00,50.0,22.0,30.23,ENE,67,11.0,14.0,34,-99.99,,,-99.99,,2013-04-03 22:02:00,
2013-04-03 18:12:00,50.0,27.0,30.23,ENE,67,10.0,16.0,40,-99.99,,,-99.99,,2013-04-03 22:12:00,
2013-04-03 18:22:00,49.0,26.0,30.23,North,0,12.0,16.0,40,-99.99,,,-99.99,,2013-04-03 22:22:00,
2013-04-03 18:32:00,49.0,23.0,30.23,ESE,112,12.0,16.0,37,-99.99,,,-99.99,,2013-04-03 22:32:00,
2013-04-03 18:42:00,48.0,23.0,30.23,North,0,10.0,14.0,36,-99.99,,,-99.99,,2013-04-03 22:42:00,
2013-04-03 18:52:00,48.0,27.0,30.23,ENE,67,10.0,14.0,42,-99.99,,,-99.99,,2013-04-03 22:52:00,
2013-04-03 19:02:00,48.0,25.0,30.23,North,0,11.0,14.0,40,-99.99,,,-99.99,,2013-04-03 23:02:00,
2013-04-03 19:12:00,48.0,24.0,30.22,ENE,67,8.0,11.0,39,-99.99,,,-99.99,,2013-04-03 23:12:00,
2013-04-03 19:22:00,48.0,22.0,30.22,ENE,67,10.0,13.0,36,-99.99,,,-99.99,,2013-04-03 23:22:00,
2013-04-03 19:32:00,47.0,22.0,30.22,North,0,10.0,13.0,36,-99.99,,,-99.99,,2013-04-03 23:32:00,
2013-04-03 19:42:00,47.0,25.0,30.22,ENE,67,9.0,11.0,41,-99.99,,,-99.99,,2013-04-03 23:42:00,
2013-04-03 19:53:00,47.0,25.0,30.22,North,0,7.0,11.0,43,-99.99,,,-99.99,,2013-04-03 23:53:00,
2013-04-03 20:02:00,47.0,27.0,30.22,North,0,10.0,14.0,47,-99.99,,,-99.99,,2013-04-04 00:02:00,
2013-04-03 20:12:00,46.0,27.0,30.22,North,0,9.0,11.0,47,-99.99,,,-99.99,,2013-04-04 00:12:00,
2013-04-03 20:22:00,46.0,27.0,30.22,North,0,7.0,9.0,47,-99.99,,,-99.99,,2013-04-04 00:22:00,
2013-04-03 20:32:00,45.0,29.0,30.22,North,0,7.0,8.0,51,-99.99,,,-99.99,,2013-04-04 00:32:00,
2013-04-03 20:43:00,45.0,29.0,30.22,North,0,7.0,8.0,53,-99.99,,,-99.99,,2013-04-04 00:43:00,
2013-04-03 20:52:00,44.0,29.0,30.21,ENE,67,5.0,7.0,57,-99.99,,,-99.99,,2013-04-04 00:52:00,
2013-04-03 21:02:00,44.0,29.0,30.21,ENE,67,6.0,8.0,54,-99.99,,,-99.99,,2013-04-04 01:02:00,
2013-04-03 21:12:00,44.0,29.0,30.21,ENE,67,6.0,7.0,56,-99.99,,,-99.99,,2013-04-04 01:12:00,
2013-04-03 21:22:00,44.0,29.0,30.21,ENE,67,5.0,6.0,56,-99.99,,,-99.99,,2013-04-04 01:22:00,
2013-04-03 21:32:00,43.0,29.0,30.21,ENE,67,5.0,6.0,57,-99.99,,,-99.99,,2013-04-04 01:32:00,
2013-04-03 21:43:00,43.0,29.0,30.21,ENE,67,4.0,5.0,57,-99.99,,,-99.99,,2013-04-04 01:43:00,
2013-04-03 21:52:00,42.0,29.0,30.22,ENE,67,4.0,4.0,60,-99.99,,,-99.99,,2013-04-04 01:52:00,
2013-04-03 22:02:00,43.0,28.0,30.22,ENE,67,4.0,5.0,57,-99.99,,,-99.99,,2013-04-04 02:02:00,
2013-04-03 22:12:00,42.0,30.0,30.23,ENE,67,4.0,5.0,60,-99.99,,,-99.99,,2013-04-04 02:12:00,
2013-04-03 22:22:00,42.0,29.0,30.23,ENE,67,4.0,5.0,61,-99.99,,,-99.99,,2013-04-04 02:22:00,
2013-04-03 22:32:00,42.0,30.0,30.23,ENE,67,4.0,4.0,63,-99.99,,,-99.99,,2013-04-04 02:32:00,
2013-04-03 22:42:00,42.0,30.0,30.23,ENE,67,4.0,4.0,63,-99.99,,,-99.99,,2013-04-04 02:42:00,
2013-04-03 22:52:00,42.0,30.0,30.23,ENE,67,4.0,4.0,63,-99.99,,,-99.99,,2013-04-04 02:52:00,
2013-04-03 23:02:00,41.0,29.0,30.23,ENE,67,5.0,5.0,63,-99.99,,,-99.99,,2013-04-04 03:02:00,
2013-04-03 23:12:00,41.0,30.0,30.22,ENE,67,5.0,6.0,64,-99.99,,,-99.99,,2013-04-04 03:12:00,
2013-04-03 23:22:00,41.0,29.0,30.21,ENE,67,6.0,7.0,62,-99.99,,,-99.99,,2013-04-04 03:22:00,
2013-04-03 23:33:00,41.0,30.0,30.21,ENE,67,6.0,7.0,66,-99.99,,,-99.99,,2013-04-04 03:33:00,
2013-04-03 23:43:00,40.0,30.0,30.21,ENE,67,5.0,6.0,67,-99.99,,,-99.99,,2013-04-04 03:43:00,
2013-04-03 23:53:00,40.0,30.0,30.21,North,0,6.0,7.0,66,-99.99,,,-99.99,,2013-04-04 03:53:00,